createdAt,value
2018-10-09T00:00:39.623Z,27.73
2018-10-09T00:01:41.785Z,31.65
2018-10-09T00:02:43.989Z,29.80
2018-10-09T00:03:46.237Z,31.12
2018-10-09T00:04:48.425Z,30.30
2018-10-09T00:05:50.648Z,32.25
2018-10-09T00:06:52.940Z,32.75
2018-10-09T00:07:55.201Z,32.98
2018-10-09T00:08:57.564Z,30.27
2018-10-09T00:09:59.783Z,32.38
2018-10-09T00:11:01.940Z,33.20
2018-10-09T00:12:04.122Z,28.52
2018-10-09T00:13:06.347Z,30.62
2018-10-09T00:14:08.521Z,32.70
2018-10-09T00:15:10.776Z,33.38
2018-10-09T00:16:12.918Z,32.38
2018-10-09T00:17:15.110Z,36.30
2018-10-09T00:18:17.343Z,33.10
2018-10-09T00:19:19.600Z,30.82
2018-10-09T00:20:24.492Z,34.20
2018-10-09T00:21:26.736Z,30.30
2018-10-09T00:22:28.993Z,30.70
2018-10-09T00:23:31.187Z,36.88
2018-10-09T00:24:33.396Z,28.85
2018-10-09T00:25:35.628Z,36.93
2018-10-09T00:26:37.800Z,32.00
2018-10-09T00:27:39.974Z,32.20
2018-10-09T00:28:42.119Z,36.75
2018-10-09T00:29:44.328Z,32.33
2018-10-09T00:30:46.497Z,33.28
2018-10-09T00:31:48.689Z,32.17
2018-10-09T00:32:50.953Z,32.33
2018-10-09T00:33:53.124Z,34.15
2018-10-09T00:34:55.387Z,35.50
2018-10-09T00:35:57.632Z,31.65
2018-10-09T00:36:59.864Z,33.53
2018-10-09T00:38:02.076Z,35.48
2018-10-09T00:39:06.689Z,32.53
2018-10-09T00:40:08.878Z,31.60
2018-10-09T00:41:11.057Z,38.20
2018-10-09T00:42:13.212Z,37.42
2018-10-09T00:43:15.435Z,31.25
2018-10-09T00:44:17.768Z,30.10
2018-10-09T00:45:19.927Z,32.40
2018-10-09T00:46:26.278Z,32.78
2018-10-09T00:47:29.775Z,29.80
2018-10-09T00:48:32.434Z,27.55
2018-10-09T00:49:39.615Z,30.60
2018-10-09T00:50:41.769Z,28.10
2018-10-09T00:51:43.960Z,40.38
2018-10-09T00:52:46.260Z,39.30
2018-10-09T00:53:48.548Z,36.15
2018-10-09T00:54:50.689Z,32.70
2018-10-09T00:55:52.875Z,31.00
2018-10-09T00:56:55.173Z,32.10
2018-10-09T00:57:57.475Z,39.90
2018-10-09T00:58:59.704Z,38.88
2018-10-09T01:00:01.885Z,31.70
2018-10-09T01:01:04.137Z,39.25
2018-10-09T01:02:06.362Z,34.15
2018-10-09T01:03:08.621Z,33.23
2018-10-09T01:04:10.848Z,36.25
2018-10-09T01:05:13.013Z,33.13
2018-10-09T01:06:15.282Z,37.03
2018-10-09T01:07:17.873Z,34.25
2018-10-09T01:08:20.268Z,36.35
2018-10-09T01:09:22.517Z,36.80
2018-10-09T01:10:25.004Z,32.17
2018-10-09T01:11:27.435Z,31.82
2018-10-09T01:12:29.598Z,31.97
2018-10-09T01:13:31.838Z,36.98
2018-10-09T01:14:34.020Z,37.00
2018-10-09T01:15:36.199Z,32.50
2018-10-09T01:16:38.408Z,34.55
2018-10-09T01:17:40.604Z,33.13
2018-10-09T01:18:42.813Z,31.02
2018-10-09T01:19:44.986Z,32.42
2018-10-09T01:20:47.186Z,36.13
2018-10-09T01:21:49.333Z,37.53
2018-10-09T01:22:52.057Z,33.40
2018-10-09T01:23:54.281Z,36.38
2018-10-09T01:24:56.485Z,37.73
2018-10-09T01:25:58.703Z,35.15
2018-10-09T01:27:00.889Z,36.68
2018-10-09T01:28:03.058Z,35.25
2018-10-09T01:29:05.244Z,30.97
2018-10-09T01:30:07.497Z,35.05
2018-10-09T01:31:09.713Z,32.95
2018-10-09T01:32:11.889Z,31.45
2018-10-09T01:33:14.083Z,37.15
2018-10-09T01:34:16.306Z,28.50
2018-10-09T01:35:18.502Z,34.90
2018-10-09T01:36:20.804Z,33.53
2018-10-09T01:37:23.619Z,33.85
2018-10-09T01:38:25.809Z,36.20
2018-10-09T01:39:27.970Z,37.00
2018-10-09T01:40:30.157Z,29.77
2018-10-09T01:41:32.349Z,36.50
2018-10-09T01:42:34.532Z,31.80
2018-10-09T01:43:36.701Z,34.13
2018-10-09T01:44:38.866Z,33.75
2018-10-09T01:45:41.056Z,31.07
2018-10-09T01:46:43.350Z,34.63
2018-10-09T01:47:45.614Z,38.35
2018-10-09T01:48:47.876Z,35.03
2018-10-09T01:49:50.151Z,35.33
2018-10-09T01:50:52.298Z,33.08
2018-10-09T01:51:54.608Z,32.35
2018-10-09T01:52:56.815Z,33.85
2018-10-09T01:53:59.057Z,26.10
2018-10-09T01:55:01.242Z,29.77
2018-10-09T01:56:03.469Z,33.10
2018-10-09T01:57:05.762Z,31.30
2018-10-09T01:58:07.961Z,29.63
2018-10-09T01:59:10.150Z,32.55
2018-10-09T02:00:12.306Z,32.58
2018-10-09T02:01:14.558Z,35.15
2018-10-09T02:02:16.745Z,34.38
2018-10-09T02:03:18.938Z,34.73
2018-10-09T02:04:21.096Z,34.75
2018-10-09T02:05:23.365Z,38.33
2018-10-09T02:06:25.652Z,33.48
2018-10-09T02:07:27.840Z,30.77
2018-10-09T02:08:30.001Z,33.30
2018-10-09T02:09:32.189Z,35.65
2018-10-09T02:10:34.433Z,32.67
2018-10-09T02:11:36.712Z,36.60
2018-10-09T02:12:38.890Z,34.20
2018-10-09T02:13:41.043Z,32.17
2018-10-09T02:14:43.269Z,36.48
2018-10-09T02:15:45.430Z,33.33
2018-10-09T02:16:47.769Z,29.67
2018-10-09T02:17:50.088Z,29.95
2018-10-09T02:18:52.264Z,32.10
2018-10-09T02:19:54.470Z,32.55
2018-10-09T02:20:56.681Z,35.88
2018-10-09T02:21:59.117Z,37.20
2018-10-09T02:23:01.382Z,35.13
2018-10-09T02:24:03.856Z,30.23
2018-10-09T02:25:06.045Z,34.88
2018-10-09T02:26:08.293Z,28.30
2018-10-09T02:27:10.448Z,34.90
2018-10-09T02:28:12.598Z,33.18
2018-10-09T02:29:15.183Z,32.25
2018-10-09T02:30:17.413Z,36.30
2018-10-09T02:31:19.624Z,35.10
2018-10-09T02:32:21.823Z,33.48
2018-10-09T02:33:24.026Z,31.90
2018-10-09T02:34:26.406Z,34.10
2018-10-09T02:35:28.596Z,31.73
2018-10-09T02:36:30.776Z,35.55
2018-10-09T02:37:32.996Z,36.38
2018-10-09T02:38:35.189Z,38.45
2018-10-09T02:39:37.435Z,37.40
2018-10-09T02:40:39.620Z,35.43
2018-10-09T02:41:41.871Z,32.53
2018-10-09T02:42:44.070Z,28.57
2018-10-09T02:43:46.306Z,34.08
2018-10-09T02:44:48.573Z,33.67
2018-10-09T02:45:50.871Z,38.20
2018-10-09T02:46:53.037Z,35.38
2018-10-09T02:47:55.263Z,41.83
2018-10-09T02:48:57.500Z,34.70
2018-10-09T02:49:59.690Z,37.58
2018-10-09T02:51:01.921Z,31.02
2018-10-09T02:52:04.121Z,32.35
2018-10-09T02:53:06.452Z,32.33
2018-10-09T02:54:08.663Z,36.75
2018-10-09T02:55:10.914Z,30.40
2018-10-09T02:56:13.116Z,32.50
2018-10-09T02:57:15.324Z,33.63
2018-10-09T02:58:17.732Z,33.67
2018-10-09T02:59:20.005Z,38.53
2018-10-09T03:00:22.216Z,29.87
2018-10-09T03:01:24.437Z,37.98
2018-10-09T03:02:26.773Z,35.13
2018-10-09T03:03:29.155Z,36.88
2018-10-09T03:04:31.289Z,32.67
2018-10-09T03:05:33.465Z,35.65
2018-10-09T03:06:35.681Z,38.20
2018-10-09T03:07:37.913Z,34.23
2018-10-09T03:08:40.222Z,39.23
2018-10-09T03:09:42.407Z,36.88
2018-10-09T03:10:44.607Z,31.33
2018-10-09T03:11:46.768Z,38.02
2018-10-09T03:12:48.993Z,31.50
2018-10-09T03:13:51.178Z,43.50
2018-10-09T03:14:53.385Z,38.53
2018-10-09T03:15:55.548Z,35.90
2018-10-09T03:16:57.738Z,32.88
2018-10-09T03:17:59.912Z,36.10
2018-10-09T03:19:02.147Z,39.35
2018-10-09T03:20:04.499Z,37.53
2018-10-09T03:21:06.724Z,37.42
2018-10-09T03:22:08.973Z,33.75
2018-10-09T03:23:11.525Z,31.95
2018-10-09T03:24:13.762Z,34.55
2018-10-09T03:25:15.936Z,33.88
2018-10-09T03:26:18.160Z,38.60
2018-10-09T03:27:20.473Z,34.38
2018-10-09T03:28:22.762Z,34.38
2018-10-09T03:29:24.969Z,36.88
2018-10-09T03:30:27.152Z,32.90
2018-10-09T03:31:29.432Z,39.40
2018-10-09T03:32:31.801Z,29.98
2018-10-09T03:33:34.039Z,34.23
2018-10-09T03:34:36.242Z,38.10
2018-10-09T03:35:38.500Z,37.88
2018-10-09T03:36:40.776Z,37.25
2018-10-09T03:37:42.975Z,36.42
2018-10-09T03:38:45.148Z,35.33
2018-10-09T03:39:47.305Z,34.27
2018-10-09T03:40:49.511Z,36.28
2018-10-09T03:41:52.018Z,33.73
2018-10-09T03:42:54.221Z,36.40
2018-10-09T03:43:56.387Z,39.42
2018-10-09T03:44:58.546Z,36.20
2018-10-09T03:46:00.739Z,36.93
2018-10-09T03:47:02.929Z,37.58
2018-10-09T03:48:05.213Z,36.85
2018-10-09T03:49:07.450Z,41.30
2018-10-09T03:50:09.619Z,36.73
2018-10-09T03:51:11.794Z,46.30
2018-10-09T03:52:13.956Z,36.93
2018-10-09T03:53:16.197Z,45.00
2018-10-09T03:54:18.360Z,34.30
2018-10-09T03:55:20.633Z,38.70
2018-10-09T03:56:22.812Z,40.48
2018-10-09T03:57:24.957Z,37.33
2018-10-09T03:58:27.141Z,39.03
2018-10-09T03:59:35.288Z,36.08
2018-10-09T04:00:37.462Z,39.38
2018-10-09T04:01:39.740Z,35.03
2018-10-09T04:02:49.372Z,35.20
2018-10-09T04:03:51.568Z,40.50
2018-10-09T04:04:53.759Z,33.00
2018-10-09T04:05:56.028Z,35.10
2018-10-09T04:06:58.196Z,40.78
2018-10-09T04:08:00.398Z,36.88
2018-10-09T04:09:03.854Z,37.90
2018-10-09T04:10:06.117Z,36.75
2018-10-09T04:11:08.653Z,36.95
2018-10-09T04:12:10.873Z,33.02
2018-10-09T04:13:13.085Z,34.85
2018-10-09T04:14:15.292Z,39.53
2018-10-09T04:15:17.493Z,35.38
2018-10-09T04:16:19.757Z,36.13
2018-10-09T04:17:21.977Z,34.20
2018-10-09T04:18:24.184Z,30.65
2018-10-09T04:19:26.452Z,34.60
2018-10-09T04:20:28.652Z,34.95
2018-10-09T04:21:30.848Z,34.75
2018-10-09T04:22:33.005Z,39.85
2018-10-09T04:23:35.424Z,38.78
2018-10-09T04:24:45.337Z,40.67
2018-10-09T04:25:47.670Z,39.13
2018-10-09T04:26:49.984Z,35.73
2018-10-09T04:27:52.140Z,31.62
2018-10-09T04:28:54.384Z,34.05
2018-10-09T04:29:56.580Z,37.58
2018-10-09T04:30:59.082Z,36.00
2018-10-09T04:32:01.412Z,34.30
2018-10-09T04:33:03.634Z,34.60
2018-10-09T04:34:06.551Z,32.08
2018-10-09T04:35:08.724Z,31.93
2018-10-09T04:36:10.913Z,36.33
2018-10-09T04:37:13.187Z,36.25
2018-10-09T04:38:15.381Z,33.67
2018-10-09T04:39:17.765Z,31.60
2018-10-09T04:40:20.057Z,31.27
2018-10-09T04:41:22.244Z,29.70
2018-10-09T04:42:24.440Z,36.10
2018-10-09T04:43:26.702Z,37.05
2018-10-09T04:44:28.905Z,38.92
2018-10-09T04:45:31.168Z,39.20
2018-10-09T04:46:33.641Z,28.27
2018-10-09T04:47:35.922Z,34.55
2018-10-09T04:48:38.294Z,31.65
2018-10-09T04:49:40.560Z,34.13
2018-10-09T04:50:42.853Z,34.08
2018-10-09T04:51:45.086Z,33.35
2018-10-09T04:52:47.397Z,32.85
2018-10-09T04:53:49.761Z,36.20
2018-10-09T04:54:51.967Z,32.08
2018-10-09T04:55:54.121Z,35.92
2018-10-09T04:56:56.381Z,35.78
2018-10-09T04:57:58.676Z,27.80
2018-10-09T04:59:00.961Z,32.20
2018-10-09T05:00:03.179Z,27.52
2018-10-09T05:01:05.426Z,33.75
2018-10-09T05:02:07.650Z,28.27
2018-10-09T05:03:09.872Z,33.15
2018-10-09T05:04:12.101Z,29.23
2018-10-09T05:05:14.326Z,31.27
2018-10-09T05:06:16.545Z,40.10
2018-10-09T05:07:18.802Z,29.87
2018-10-09T05:08:21.006Z,32.78
2018-10-09T05:09:23.195Z,33.85
2018-10-09T05:10:25.398Z,36.23
2018-10-09T05:11:27.619Z,33.50
2018-10-09T05:12:29.807Z,28.77
2018-10-09T05:13:32.165Z,29.67
2018-10-09T05:14:34.418Z,32.85
2018-10-09T05:15:36.649Z,31.97
2018-10-09T05:16:39.085Z,31.40
2018-10-09T05:17:41.294Z,29.35
2018-10-09T05:18:43.498Z,29.32
2018-10-09T05:19:45.752Z,32.23
2018-10-09T05:20:47.969Z,29.42
2018-10-09T05:21:50.211Z,30.08
2018-10-09T05:22:52.494Z,29.65
2018-10-09T05:23:54.756Z,31.17
2018-10-09T05:24:57.017Z,31.30
2018-10-09T05:25:59.258Z,31.65
2018-10-09T05:27:01.479Z,33.45
2018-10-09T05:28:03.736Z,29.20
2018-10-09T05:29:06.056Z,28.65
2018-10-09T05:30:08.349Z,33.95
2018-10-09T05:31:10.817Z,30.85
2018-10-09T05:32:13.068Z,30.27
2018-10-09T05:33:15.441Z,31.07
2018-10-09T05:34:17.641Z,31.80
2018-10-09T05:35:24.309Z,31.48
2018-10-09T05:36:26.527Z,30.55
2018-10-09T05:37:28.730Z,35.98
2018-10-09T05:38:30.981Z,30.00
2018-10-09T05:39:33.218Z,31.05
2018-10-09T05:40:35.485Z,33.53
2018-10-09T05:41:44.601Z,32.13
2018-10-09T05:42:46.889Z,29.02
2018-10-09T05:43:49.165Z,36.55
2018-10-09T05:44:51.452Z,32.00
2018-10-09T05:45:53.704Z,27.00
2018-10-09T05:46:55.971Z,34.43
2018-10-09T05:47:58.283Z,31.40
2018-10-09T05:49:00.509Z,32.50
2018-10-09T05:50:02.836Z,34.63
2018-10-09T05:51:05.212Z,28.98
2018-10-09T05:52:07.495Z,27.25
2018-10-09T05:53:09.760Z,29.40
2018-10-09T05:54:12.065Z,26.10
2018-10-09T05:55:14.486Z,35.78
2018-10-09T05:56:16.764Z,31.37
2018-10-09T05:57:19.152Z,31.80
2018-10-09T05:58:21.364Z,32.28
2018-10-09T05:59:23.595Z,31.73
2018-10-09T06:00:25.909Z,28.30
2018-10-09T06:01:28.137Z,30.23
2018-10-09T06:02:30.326Z,31.37
2018-10-09T06:03:32.504Z,28.62
2018-10-09T06:04:34.696Z,35.20
2018-10-09T06:05:36.993Z,32.48
2018-10-09T06:06:39.266Z,28.65
2018-10-09T06:07:41.471Z,32.40
2018-10-09T06:08:43.868Z,33.02
2018-10-09T06:09:46.102Z,36.98
2018-10-09T06:10:48.268Z,36.90
2018-10-09T06:11:50.464Z,36.38
2018-10-09T06:12:52.684Z,31.90
2018-10-09T06:13:55.082Z,35.00
2018-10-09T06:14:57.445Z,33.67
2018-10-09T06:15:59.911Z,38.10
2018-10-09T06:17:02.117Z,32.60
2018-10-09T06:18:04.541Z,37.33
2018-10-09T06:19:06.785Z,40.85
2018-10-09T06:20:09.025Z,41.45
2018-10-09T06:21:11.354Z,42.00
2018-10-09T06:22:13.713Z,36.65
2018-10-09T06:23:15.935Z,41.53
2018-10-09T06:24:18.720Z,39.88
2018-10-09T06:25:20.979Z,42.43
2018-10-09T06:26:23.214Z,40.85
2018-10-09T06:27:25.380Z,33.02
2018-10-09T06:28:27.614Z,34.45
2018-10-09T06:29:29.738Z,33.42
2018-10-09T06:30:31.942Z,36.20
2018-10-09T06:31:34.462Z,38.50
2018-10-09T06:32:36.632Z,36.70
2018-10-09T06:33:38.828Z,38.90
2018-10-09T06:34:41.031Z,36.93
2018-10-09T06:35:43.221Z,35.00
2018-10-09T06:36:45.420Z,39.13
2018-10-09T06:37:47.734Z,41.33
2018-10-09T06:38:49.972Z,37.50
2018-10-09T06:39:52.143Z,46.88
2018-10-09T06:40:54.352Z,46.42
2018-10-09T06:41:56.526Z,37.33
2018-10-09T06:42:58.691Z,42.23
2018-10-09T06:44:00.865Z,35.60
2018-10-09T06:45:03.108Z,43.02
2018-10-09T06:46:05.372Z,40.25
2018-10-09T06:47:07.601Z,37.30
2018-10-09T06:48:09.764Z,45.75
2018-10-09T06:49:11.949Z,36.13
2018-10-09T06:50:14.126Z,45.95
2018-10-09T06:51:16.407Z,42.60
2018-10-09T06:52:18.585Z,36.88
2018-10-09T06:53:20.815Z,42.25
2018-10-09T06:54:23.013Z,37.60
2018-10-09T06:55:25.133Z,41.88
2018-10-09T06:56:27.451Z,38.42
2018-10-09T06:57:29.685Z,45.88
2018-10-09T06:58:31.838Z,46.30
2018-10-09T06:59:33.998Z,37.45
2018-10-09T07:00:36.179Z,47.75
2018-10-09T07:01:38.354Z,42.33
2018-10-09T07:02:40.517Z,36.88
2018-10-09T07:03:42.676Z,38.40
2018-10-09T07:04:44.822Z,42.70
2018-10-09T07:05:46.981Z,50.58
2018-10-09T07:06:49.218Z,43.30
2018-10-09T07:07:51.436Z,44.70
2018-10-09T07:08:53.630Z,38.95
2018-10-09T07:09:55.813Z,40.15
2018-10-09T07:10:58.290Z,36.03
2018-10-09T07:12:00.417Z,38.48
2018-10-09T07:13:02.577Z,42.23
2018-10-09T07:14:04.834Z,41.23
2018-10-09T07:15:07.381Z,41.88
2018-10-09T07:16:09.563Z,45.23
2018-10-09T07:17:11.868Z,39.70
2018-10-09T07:18:14.113Z,43.48
2018-10-09T07:19:16.296Z,37.00
2018-10-09T07:20:18.491Z,44.40
2018-10-09T07:21:20.640Z,43.73
2018-10-09T07:22:23.068Z,39.03
2018-10-09T07:23:25.242Z,42.75
2018-10-09T07:24:27.647Z,42.33
2018-10-09T07:25:29.789Z,44.93
2018-10-09T07:26:31.976Z,43.90
2018-10-09T07:27:34.223Z,38.00
2018-10-09T07:28:36.382Z,39.23
2018-10-09T07:29:38.581Z,36.03
2018-10-09T07:30:40.762Z,31.75
2018-10-09T07:31:42.985Z,39.38
2018-10-09T07:32:45.221Z,37.05
2018-10-09T07:33:47.466Z,40.85
2018-10-09T07:34:49.644Z,44.75
2018-10-09T07:35:51.929Z,38.78
2018-10-09T07:36:54.113Z,38.83
2018-10-09T07:37:56.301Z,32.93
2018-10-09T07:38:58.457Z,37.65
2018-10-09T07:40:00.634Z,32.30
2018-10-09T07:41:02.886Z,30.65
2018-10-09T07:42:05.051Z,32.08
2018-10-09T07:43:07.242Z,35.70
2018-10-09T07:44:09.582Z,36.85
2018-10-09T07:45:11.593Z,35.73
2018-10-09T07:46:13.773Z,31.25
2018-10-09T07:47:15.956Z,34.00
2018-10-09T07:48:18.121Z,34.10
2018-10-09T07:49:20.269Z,34.40
2018-10-09T07:50:22.424Z,35.28
2018-10-09T07:51:24.608Z,40.23
2018-10-09T07:52:26.808Z,33.40
2018-10-09T07:53:29.014Z,37.50
2018-10-09T07:54:31.264Z,35.05
2018-10-09T07:55:33.440Z,31.97
2018-10-09T07:56:35.617Z,34.48
2018-10-09T07:57:37.842Z,32.98
2018-10-09T07:58:40.055Z,40.50
2018-10-09T07:59:42.195Z,35.30
2018-10-09T08:00:44.353Z,33.02
2018-10-09T08:01:46.518Z,31.87
2018-10-09T08:02:48.710Z,32.50
2018-10-09T08:03:50.866Z,33.88
2018-10-09T08:04:53.298Z,31.90
2018-10-09T08:05:55.403Z,35.83
2018-10-09T08:06:57.725Z,34.83
2018-10-09T08:07:59.933Z,38.65
2018-10-09T08:09:02.114Z,34.65
2018-10-09T08:10:04.578Z,30.80
2018-10-09T08:11:06.773Z,38.90
2018-10-09T08:12:08.936Z,36.95
2018-10-09T08:13:11.181Z,33.05
2018-10-09T08:14:13.377Z,37.40
2018-10-09T08:15:15.609Z,35.45
2018-10-09T08:16:17.878Z,37.30
2018-10-09T08:17:19.998Z,30.43
2018-10-09T08:18:22.149Z,33.02
2018-10-09T08:19:24.333Z,37.48
2018-10-09T08:20:26.482Z,31.27
2018-10-09T08:21:28.669Z,37.38
2018-10-09T08:22:30.917Z,32.48
2018-10-09T08:23:33.142Z,35.70
2018-10-09T08:24:35.301Z,35.63
2018-10-09T08:25:37.605Z,32.53
2018-10-09T08:26:39.749Z,30.97
2018-10-09T08:27:42.142Z,35.90
2018-10-09T08:28:44.292Z,39.95
2018-10-09T08:29:46.474Z,44.10
2018-10-09T08:30:48.619Z,46.42
2018-10-09T08:31:50.765Z,41.75
2018-10-09T08:32:52.985Z,37.35
2018-10-09T08:33:55.205Z,33.63
2018-10-09T08:34:57.469Z,34.43
2018-10-09T08:35:59.642Z,36.58
2018-10-09T08:37:01.800Z,35.45
2018-10-09T08:38:04.258Z,36.42
2018-10-09T08:39:06.484Z,38.02
2018-10-09T08:40:08.689Z,43.42
2018-10-09T08:41:10.827Z,43.50
2018-10-09T08:42:13.002Z,35.95
2018-10-09T08:43:15.165Z,35.73
2018-10-09T08:44:17.345Z,44.60
2018-10-09T08:45:19.590Z,44.50
2018-10-09T08:46:22.157Z,35.92
2018-10-09T08:47:24.256Z,36.83
2018-10-09T08:48:26.440Z,35.68
2018-10-09T08:49:28.672Z,41.18
2018-10-09T08:50:30.837Z,38.25
2018-10-09T08:51:33.013Z,34.15
2018-10-09T08:52:35.249Z,46.70
2018-10-09T08:53:37.415Z,39.85
2018-10-09T08:54:39.553Z,42.30
2018-10-09T08:55:41.769Z,46.65
2018-10-09T08:56:43.993Z,41.45
2018-10-09T08:57:46.133Z,35.73
2018-10-09T08:58:48.328Z,44.48
2018-10-09T08:59:50.485Z,38.50
2018-10-09T09:00:52.753Z,38.13
2018-10-09T09:01:54.916Z,43.52
2018-10-09T09:02:57.065Z,35.98
2018-10-09T09:03:59.789Z,37.10
2018-10-09T09:05:02.014Z,39.80
2018-10-09T09:06:04.180Z,38.08
2018-10-09T09:07:06.376Z,37.88
2018-10-09T09:08:08.549Z,37.35
2018-10-09T09:09:11.484Z,36.68
2018-10-09T09:10:13.684Z,38.90
2018-10-09T09:11:15.863Z,49.80
2018-10-09T09:12:18.125Z,45.65
2018-10-09T09:13:20.279Z,36.88
2018-10-09T09:14:22.445Z,35.55
2018-10-09T09:15:24.701Z,33.67
2018-10-09T09:16:26.770Z,37.35
2018-10-09T09:17:29.080Z,34.20
2018-10-09T09:18:31.276Z,38.63
2018-10-09T09:19:33.461Z,44.73
2018-10-09T09:20:35.709Z,45.63
2018-10-09T09:21:37.801Z,34.08
2018-10-09T09:22:39.984Z,39.25
2018-10-09T09:23:42.127Z,40.52
2018-10-09T09:24:44.263Z,36.40
2018-10-09T09:25:46.411Z,34.85
2018-10-09T09:26:48.610Z,36.70
2018-10-09T09:27:50.795Z,33.50
2018-10-09T09:28:53.030Z,35.40
2018-10-09T09:29:55.202Z,36.35
2018-10-09T09:30:57.458Z,37.25
2018-10-09T09:31:59.781Z,38.08
2018-10-09T09:33:02.080Z,32.73
2018-10-09T09:34:04.618Z,37.65
2018-10-09T09:35:06.937Z,28.57
2018-10-09T09:36:09.113Z,31.37
2018-10-09T09:37:11.270Z,31.65
2018-10-09T09:38:13.424Z,40.43
2018-10-09T09:39:15.574Z,41.35
2018-10-09T09:40:17.721Z,36.77
2018-10-09T09:41:19.916Z,41.90
2018-10-09T09:42:22.142Z,44.40
2018-10-09T09:43:24.288Z,42.27
2018-10-09T09:44:26.457Z,38.98
2018-10-09T09:45:28.669Z,44.55
2018-10-09T09:46:30.858Z,38.10
2018-10-09T09:47:33.057Z,33.60
2018-10-09T09:48:35.226Z,33.60
2018-10-09T09:49:37.393Z,34.95
2018-10-09T09:50:39.733Z,38.67
2018-10-09T09:51:41.919Z,32.73
2018-10-09T09:52:44.095Z,31.07
2018-10-09T09:53:46.297Z,44.60
2018-10-09T09:54:48.468Z,39.92
2018-10-09T09:55:50.609Z,42.38
2018-10-09T09:56:52.826Z,36.00
2018-10-09T09:57:55.097Z,38.00
2018-10-09T09:58:57.422Z,39.27
2018-10-09T09:59:59.421Z,40.33
2018-10-09T10:01:08.583Z,36.58
2018-10-09T10:02:10.813Z,34.85
2018-10-09T10:03:12.994Z,35.13
2018-10-09T10:04:15.162Z,36.28
2018-10-09T10:05:17.340Z,38.55
2018-10-09T10:06:19.492Z,45.15
2018-10-09T10:07:21.656Z,46.92
2018-10-09T10:08:23.789Z,51.05
2018-10-09T10:09:26.030Z,48.68
2018-10-09T10:10:28.137Z,38.88
2018-10-09T10:11:30.255Z,40.95
2018-10-09T10:12:32.678Z,38.90
2018-10-09T10:13:34.871Z,42.80
2018-10-09T10:14:37.037Z,35.48
2018-10-09T10:15:39.206Z,31.65
2018-10-09T10:16:41.362Z,30.10
2018-10-09T10:18:44.831Z,33.63
2018-10-09T10:19:46.998Z,40.65
2018-10-09T10:20:49.151Z,41.00
2018-10-09T10:21:51.308Z,34.10
2018-10-09T10:22:53.552Z,30.72
2018-10-09T10:23:55.746Z,29.77
2018-10-09T10:24:57.937Z,26.23
2018-10-09T10:26:00.132Z,35.25
2018-10-09T10:27:02.511Z,29.87
2018-10-09T10:28:04.723Z,35.38
2018-10-09T10:29:06.936Z,27.30
2018-10-09T10:30:09.086Z,32.93
2018-10-09T10:31:11.320Z,36.03
2018-10-09T10:32:13.474Z,33.65
2018-10-09T10:33:15.621Z,31.62
2018-10-09T10:34:17.778Z,33.20
2018-10-09T10:35:19.927Z,31.15
2018-10-09T10:36:22.124Z,29.50
2018-10-09T10:37:24.494Z,37.93
2018-10-09T10:38:26.783Z,43.23
2018-10-09T10:39:28.985Z,32.88
2018-10-09T10:40:31.158Z,32.70
2018-10-09T10:41:33.314Z,27.58
2018-10-09T10:42:35.470Z,27.45
2018-10-09T10:43:37.628Z,24.75
2018-10-09T10:44:39.756Z,26.17
2018-10-09T10:45:41.953Z,35.17
2018-10-09T10:46:44.090Z,36.10
2018-10-09T10:47:46.269Z,34.48
2018-10-09T10:48:57.089Z,38.00
2018-10-09T10:49:59.178Z,32.40
2018-10-09T10:51:01.327Z,37.65
2018-10-09T10:52:03.844Z,26.50
2018-10-09T10:53:06.288Z,28.92
2018-10-09T10:54:08.438Z,24.43
2018-10-09T10:55:10.626Z,24.40
2018-10-09T10:56:12.831Z,34.03
2018-10-09T10:57:14.996Z,34.23
2018-10-09T10:58:17.173Z,30.30
2018-10-09T10:59:19.694Z,27.98
2018-10-09T11:00:21.866Z,29.55
2018-10-09T11:01:24.151Z,35.52
2018-10-09T11:02:26.350Z,36.83
2018-10-09T11:03:28.516Z,35.58
2018-10-09T11:04:30.677Z,34.80
2018-10-09T11:05:32.860Z,30.25
2018-10-09T11:06:35.023Z,25.80
2018-10-09T11:07:37.201Z,34.70
2018-10-09T11:08:39.373Z,35.40
2018-10-09T11:09:41.566Z,29.90
2018-10-09T11:10:43.725Z,31.15
2018-10-09T11:11:45.892Z,27.65
2018-10-09T11:12:48.043Z,26.97
2018-10-09T11:13:50.218Z,30.45
2018-10-09T11:14:52.354Z,23.75
2018-10-09T11:15:54.521Z,33.60
2018-10-09T11:16:56.762Z,36.98
2018-10-09T11:17:58.932Z,27.37
2018-10-09T11:19:01.138Z,25.55
2018-10-09T11:20:03.345Z,24.60
2018-10-09T11:21:05.704Z,27.40
2018-10-09T11:22:07.822Z,21.48
2018-10-09T11:23:09.969Z,27.20
2018-10-09T11:24:12.458Z,36.35
2018-10-09T11:25:14.641Z,24.23
2018-10-09T11:26:16.804Z,27.32
2018-10-09T11:27:18.952Z,29.85
2018-10-09T11:28:21.165Z,30.55
2018-10-09T11:29:23.377Z,27.37
2018-10-09T11:30:25.585Z,34.90
2018-10-09T11:31:27.761Z,34.13
2018-10-09T11:32:29.927Z,26.52
2018-10-09T11:33:32.074Z,23.47
2018-10-09T11:34:34.602Z,18.23
2018-10-09T11:35:36.733Z,30.70
2018-10-09T11:36:38.899Z,26.62
2018-10-09T11:37:41.079Z,33.70
2018-10-09T11:38:43.293Z,29.63
2018-10-09T11:39:45.457Z,33.20
2018-10-09T11:40:47.628Z,27.65
2018-10-09T11:41:49.796Z,23.42
2018-10-09T11:42:52.016Z,23.57
2018-10-09T11:43:54.152Z,25.40
2018-10-09T11:44:56.366Z,32.83
2018-10-09T11:45:58.532Z,30.32
2018-10-09T11:47:00.681Z,32.33
2018-10-09T11:48:02.873Z,30.72
2018-10-09T11:49:05.929Z,30.65
2018-10-09T11:50:08.366Z,27.35
2018-10-09T11:51:10.513Z,24.15
2018-10-09T11:52:12.678Z,24.92
2018-10-09T11:53:14.828Z,25.27
2018-10-09T11:54:17.009Z,27.52
2018-10-09T11:55:19.191Z,27.75
2018-10-09T11:56:21.376Z,29.00
2018-10-09T11:57:23.541Z,27.07
2018-10-09T11:58:25.724Z,27.27
2018-10-09T11:59:27.923Z,25.30
2018-10-09T12:00:32.205Z,22.62
2018-10-09T12:01:34.392Z,22.82
2018-10-09T12:02:36.614Z,21.33
2018-10-09T12:03:38.769Z,19.32
2018-10-09T12:04:40.971Z,23.42
2018-10-09T12:05:43.140Z,25.27
2018-10-09T12:06:45.343Z,23.05
2018-10-09T12:07:47.536Z,29.05
2018-10-09T12:08:49.716Z,27.87
2018-10-09T12:09:51.914Z,26.45
2018-10-09T12:10:54.380Z,19.40
2018-10-09T12:11:56.594Z,21.75
2018-10-09T12:12:58.750Z,23.35
2018-10-09T12:14:00.906Z,17.20
2018-10-09T12:15:03.094Z,22.45
2018-10-09T12:16:05.370Z,19.02
2018-10-09T12:17:07.576Z,18.57
2018-10-09T12:18:09.725Z,17.67
2018-10-09T12:19:11.894Z,17.80
2018-10-09T12:20:14.034Z,18.30
2018-10-09T12:21:16.240Z,20.88
2018-10-09T12:22:18.376Z,16.40
2018-10-09T12:23:20.502Z,19.40
2018-10-09T12:24:22.669Z,23.80
2018-10-09T12:25:24.879Z,21.60
2018-10-09T12:26:27.459Z,20.62
2018-10-09T12:27:29.628Z,15.95
2018-10-09T12:28:31.793Z,22.98
2018-10-09T12:29:33.961Z,19.42
2018-10-09T12:30:36.221Z,18.17
2018-10-09T12:31:38.412Z,18.02
2018-10-09T12:32:40.609Z,20.70
2018-10-09T12:33:42.737Z,21.23
2018-10-09T12:34:44.895Z,23.50
2018-10-09T12:35:47.069Z,18.32
2018-10-09T12:36:49.233Z,22.27
2018-10-09T12:37:51.422Z,20.40
2018-10-09T12:38:53.654Z,21.12
2018-10-09T12:39:55.760Z,18.80
2018-10-09T12:40:57.922Z,17.57
2018-10-09T12:42:00.100Z,17.82
2018-10-09T12:43:02.227Z,17.65
2018-10-09T12:44:04.436Z,19.23
2018-10-09T12:45:06.757Z,19.45
2018-10-09T12:46:08.913Z,20.52
2018-10-09T12:47:11.022Z,16.80
2018-10-09T12:48:13.126Z,19.07
2018-10-09T12:49:15.326Z,19.02
2018-10-09T12:50:17.496Z,19.55
2018-10-09T12:51:19.894Z,21.73
2018-10-09T12:52:22.017Z,18.25
2018-10-09T12:53:24.169Z,19.20
2018-10-09T12:54:26.316Z,16.60
2018-10-09T12:55:28.454Z,17.12
2018-10-09T12:56:30.558Z,19.73
2018-10-09T12:57:32.966Z,18.05
2018-10-09T12:58:35.212Z,18.80
2018-10-09T12:59:37.368Z,19.17
2018-10-09T13:00:39.506Z,20.57
2018-10-09T13:01:41.707Z,20.08
2018-10-09T13:02:43.816Z,18.65
2018-10-09T13:03:45.961Z,17.55
2018-10-09T13:04:48.079Z,18.45
2018-10-09T13:05:50.667Z,17.23
2018-10-09T13:06:52.789Z,17.32
2018-10-09T13:07:54.920Z,17.65
2018-10-09T13:08:57.289Z,17.12
2018-10-09T13:09:59.445Z,16.85
2018-10-09T13:11:01.598Z,19.80
2018-10-09T13:12:03.737Z,18.60
2018-10-09T13:13:05.963Z,21.00
2018-10-09T13:14:08.218Z,18.17
2018-10-09T13:15:10.454Z,20.75
2018-10-09T13:16:12.600Z,17.50
2018-10-09T13:17:14.785Z,23.05
2018-10-09T13:18:16.909Z,19.62
2018-10-09T13:19:19.074Z,15.68
2018-10-09T13:20:21.205Z,20.08
2018-10-09T13:21:23.429Z,22.95
2018-10-09T13:22:25.749Z,17.65
2018-10-09T13:23:27.625Z,16.20